map of HET home
HET - Airport
Location
City:  Hohhot, Inner Mongolia, China
Name:Baita International Airport
ICAO:ZBHH
IATA:HET

Details
Type:Airport (Aerodrome, Airfield)
Use:Public/Civil, International (customs port of entry)
Latitude:4051'05"N (40.851422)
Longitude:11149'27"E (111.824103)
Datum:WGS 1984
Elevation:3556 ft (1084 m)
Variation:5.80W (WMM2015v2 magnetic declination)
-0.10 annual change
Runways:2
Longest:11811 × 148 ft (3600 × 45 m), paved

Time
Time Zone:UTC+8
Local Time:

Weather
METAR:ZBHH 041400Z 15003MPS 1600 FU NSC M08/M17 Q1013 BECMG TL1530 1300 FU

Related Locations
Nearby:
Farthest:LMD: 12436 mi / 20014 km
Los Menucos, R, AR

Find:

   beyond  
but within

Other Information
Maps:
NOTAMs:
Links:
Sources:

  
  • flag of China
  

Sectional Chart

Flight Planning
at skyvector.com

Satellite Image

Google Maps Satellite view

 

Copyright © 2004-2019 Karl L. Swartz. All rights reserved.
The Great Circle Mapper name and logo are trademarks of the Great Circle Mapper.
All other trademarks mentioned herein belong to their respective owners.
Please see credits for attibutions and further copyright information.

  Follow gcmap on Facebook Follow gcmap on Twitter GCmap on LinkedIn

hCard Microformat

Geo Microformat